Terminal Aerodrome Forecast
Issued by NWS Raleigh/Durham, NC

Home | Current Version | Previous Version | Text Only | Print | Product List | Glossary On
Versions: 1 2 3 4 5 6 7 8 9 10 11 12 13 14 15 16 17 18 19 20 21 22 23 24 25 26 27 28 29 30 31 32 33 34 35 36 37 38 39 40 41 42 43
000
FTUS42 KRAH 191125
TAFFAY
TAF
KFAY 191125Z 1912/2012 08005KT 4SM BR OVC060
     FM191500 11010KT 3SM -SHRA BR OVC012
     FM191800 12011KT 1 1/2SM -SHRA BR OVC007
     FM200000 15011G22KT 1 1/2SM BR OVC004
     FM200400 18006KT 1 1/2SM BR OVC004=

USA.gov is the U.S. government's official web portal to all federal, state and local government web resources and services.